createdAt,value
2024-04-16T00:00:19.564Z,0.70
2024-04-16T00:02:52.064Z,0.73
2024-04-16T00:05:19.787Z,1.02
2024-04-16T00:07:49.773Z,1.00
2024-04-16T00:10:17.260Z,0.90
2024-04-16T00:12:47.107Z,1.10
2024-04-16T00:15:43.625Z,0.63
2024-04-16T00:18:17.342Z,0.70
2024-04-16T00:20:44.729Z,0.80
2024-04-16T00:23:14.789Z,0.90
2024-04-16T00:25:42.058Z,0.80
2024-04-16T00:28:12.160Z,1.10
2024-04-16T00:30:39.642Z,0.85
2024-04-16T00:33:09.570Z,0.82
2024-04-16T00:35:44.082Z,0.95
2024-04-16T00:38:14.274Z,1.08
2024-04-16T00:40:41.574Z,0.90
2024-04-16T00:43:20.790Z,0.95
2024-04-16T00:45:50.476Z,0.90
2024-04-16T00:48:20.415Z,0.77
2024-04-16T00:50:50.904Z,0.90
2024-04-16T00:53:21.763Z,1.17
2024-04-16T00:55:49.211Z,0.90
2024-04-16T00:58:20.829Z,1.10
2024-04-16T01:00:48.399Z,1.25
2024-04-16T01:03:18.643Z,1.67
2024-04-16T01:05:46.034Z,1.40
2024-04-16T01:08:18.520Z,0.95
2024-04-16T01:10:45.876Z,1.25
2024-04-16T01:13:15.929Z,1.15
2024-04-16T01:15:43.185Z,1.17
2024-04-16T01:18:13.139Z,1.02
2024-04-16T01:20:40.576Z,1.00
2024-04-16T01:23:13.034Z,0.80
2024-04-16T01:25:40.305Z,0.90
2024-04-16T01:28:10.536Z,0.90
2024-04-16T01:30:37.891Z,1.05
2024-04-16T01:33:09.974Z,0.98
2024-04-16T01:35:37.464Z,0.90
2024-04-16T01:38:07.896Z,1.05
2024-04-16T01:40:37.888Z,1.05
2024-04-16T01:43:07.857Z,0.77
2024-04-16T01:45:35.428Z,1.00
2024-04-16T01:48:05.721Z,1.10
2024-04-16T01:50:33.014Z,0.77
2024-04-16T01:53:03.171Z,1.15
2024-04-16T01:55:30.573Z,0.90
2024-04-16T01:58:07.740Z,0.80
2024-04-16T02:00:35.287Z,0.75
2024-04-16T02:03:05.409Z,0.90
2024-04-16T02:05:32.767Z,0.68
2024-04-16T02:08:02.579Z,0.95
2024-04-16T02:10:30.022Z,0.75
2024-04-16T02:12:59.971Z,0.73
2024-04-16T02:15:29.892Z,0.80
2024-04-16T02:17:59.852Z,0.90
2024-04-16T02:20:27.235Z,0.80
2024-04-16T02:23:00.347Z,1.00
2024-04-16T02:25:27.689Z,0.90
2024-04-16T02:27:57.616Z,0.93
2024-04-16T02:30:24.898Z,1.10
2024-04-16T02:32:58.072Z,1.20
2024-04-16T02:35:25.338Z,1.00
2024-04-16T02:37:55.282Z,0.85
2024-04-16T02:40:22.594Z,0.85
2024-04-16T02:42:53.148Z,0.70
2024-04-16T02:45:21.512Z,0.93
2024-04-16T02:47:51.697Z,1.42
2024-04-16T02:50:21.688Z,1.08
2024-04-16T02:52:51.624Z,0.70
2024-04-16T02:55:22.168Z,0.90
2024-04-16T02:57:52.113Z,1.10
2024-04-16T03:00:19.754Z,1.23
2024-04-16T03:02:49.926Z,0.98
2024-04-16T03:05:19.075Z,1.58
2024-04-16T03:07:53.900Z,0.90
2024-04-16T03:10:21.320Z,0.80
2024-04-16T03:12:54.461Z,0.93
2024-04-16T03:15:21.907Z,0.98
2024-04-16T03:17:51.810Z,1.10
2024-04-16T03:20:19.468Z,0.98
2024-04-16T03:22:54.675Z,0.93
2024-04-16T03:25:22.044Z,1.00
2024-04-16T03:27:51.946Z,1.13
2024-04-16T03:30:19.587Z,1.40
2024-04-16T03:32:49.989Z,1.00
2024-04-16T03:35:17.538Z,1.15
2024-04-16T03:37:48.836Z,1.20
2024-04-16T03:40:22.742Z,1.30
2024-04-16T03:42:56.576Z,1.05
2024-04-16T03:45:23.883Z,1.13
2024-04-16T03:47:54.700Z,1.13
2024-04-16T03:50:22.043Z,0.80
2024-04-16T03:52:51.964Z,1.13
2024-04-16T03:55:23.119Z,0.98
2024-04-16T03:57:53.032Z,0.98
2024-04-16T04:00:39.001Z,1.20
2024-04-16T04:03:12.085Z,1.27
2024-04-16T04:05:42.024Z,1.30
2024-04-16T04:08:12.576Z,1.67
2024-04-16T04:10:45.490Z,1.73
2024-04-16T04:13:12.899Z,1.60
2024-04-16T04:15:43.134Z,1.60
2024-04-16T04:18:11.603Z,1.55
2024-04-16T04:20:42.324Z,1.63
2024-04-16T04:23:10.185Z,1.33
2024-04-16T04:25:41.294Z,1.35
2024-04-16T04:28:11.392Z,1.52
2024-04-16T04:30:41.604Z,1.05
2024-04-16T04:33:08.977Z,1.20
2024-04-16T04:35:38.913Z,1.00
2024-04-16T04:38:06.302Z,1.35
2024-04-16T04:40:36.894Z,1.15
2024-04-16T04:43:04.388Z,1.10
2024-04-16T04:45:38.401Z,1.50
2024-04-16T04:48:06.332Z,1.67
2024-04-16T04:50:36.548Z,1.48
2024-04-16T04:53:04.170Z,1.70
2024-04-16T04:55:34.080Z,1.52
2024-04-16T04:58:02.039Z,2.03
2024-04-16T05:00:32.675Z,1.60
2024-04-16T05:03:04.728Z,1.50
2024-04-16T05:05:35.303Z,1.48
2024-04-16T05:08:04.942Z,1.13
2024-04-16T05:10:35.229Z,1.20
2024-04-16T05:13:02.613Z,1.30
2024-04-16T05:15:32.492Z,1.42
2024-04-16T05:18:03.657Z,1.60
2024-04-16T05:20:37.991Z,1.27
2024-04-16T05:23:07.938Z,1.10
2024-04-16T05:25:35.756Z,1.42
2024-04-16T05:28:05.797Z,1.30
2024-04-16T05:30:33.063Z,1.13
2024-04-16T05:33:05.563Z,1.20
2024-04-16T05:35:36.613Z,1.35
2024-04-16T05:38:06.975Z,1.30
2024-04-16T05:40:34.854Z,1.80
2024-04-16T05:43:04.915Z,1.45
2024-04-16T05:45:32.629Z,1.40
2024-04-16T05:48:30.579Z,1.30
2024-04-16T05:50:58.987Z,1.40
2024-04-16T05:53:37.854Z,1.65
2024-04-16T05:56:31.350Z,1.60
2024-04-16T05:59:01.287Z,1.38
2024-04-16T06:01:56.844Z,1.50
2024-04-16T06:04:27.022Z,3.50
2024-04-16T06:07:06.204Z,2.03
2024-04-16T06:09:33.874Z,1.60
2024-04-16T06:12:04.203Z,2.35
2024-04-16T06:14:31.487Z,1.98
2024-04-16T06:17:11.948Z,2.10
2024-04-16T06:19:45.229Z,1.58
2024-04-16T06:22:15.126Z,1.50
2024-04-16T06:24:42.335Z,1.40
2024-04-16T06:27:12.651Z,1.50
2024-04-16T06:29:43.702Z,1.70
2024-04-16T06:32:13.694Z,1.50
2024-04-16T06:34:41.075Z,1.45
2024-04-16T06:37:30.988Z,1.58
2024-04-16T06:39:58.254Z,0.90
2024-04-16T06:42:28.469Z,2.00
2024-04-16T06:44:55.674Z,1.40
2024-04-16T06:47:50.244Z,1.38
2024-04-16T06:50:17.672Z,1.65
2024-04-16T06:52:50.306Z,1.58
2024-04-16T06:55:20.694Z,1.50
2024-04-16T06:57:53.656Z,1.15
2024-04-16T07:00:21.765Z,1.60
2024-04-16T07:02:51.924Z,1.15
2024-04-16T07:05:19.623Z,1.40
2024-04-16T07:08:01.296Z,1.15
2024-04-16T07:10:28.574Z,1.50
2024-04-16T07:13:01.543Z,1.20
2024-04-16T07:15:28.986Z,1.58
2024-04-16T07:18:09.013Z,1.40
2024-04-16T07:20:39.498Z,1.73
2024-04-16T07:23:13.850Z,1.63
2024-04-16T07:25:46.288Z,1.73
2024-04-16T07:28:42.668Z,1.63
2024-04-16T07:31:14.069Z,1.63
2024-04-16T07:34:13.771Z,1.50
2024-04-16T07:36:41.068Z,1.45
2024-04-16T07:39:36.195Z,1.77
2024-04-16T07:42:06.610Z,1.75
2024-04-16T07:44:37.113Z,1.30
2024-04-16T07:47:30.272Z,1.60
2024-04-16T07:50:00.180Z,1.70
2024-04-16T07:52:27.655Z,1.58
2024-04-16T07:55:15.426Z,2.08
2024-04-16T07:57:45.500Z,1.67
2024-04-16T08:00:16.503Z,1.95
2024-04-16T08:02:43.760Z,1.65
2024-04-16T08:05:23.957Z,1.73
2024-04-16T08:07:51.513Z,1.30
2024-04-16T08:10:21.497Z,1.20
2024-04-16T08:12:51.296Z,1.33
2024-04-16T08:15:35.460Z,1.13
2024-04-16T08:18:05.768Z,1.10
2024-04-16T08:20:33.148Z,1.42
2024-04-16T08:23:03.252Z,1.20
2024-04-16T08:25:55.783Z,1.10
2024-04-16T08:28:28.427Z,1.17
2024-04-16T08:30:55.791Z,1.55
2024-04-16T08:33:36.737Z,1.30
2024-04-16T08:36:04.391Z,1.15
2024-04-16T08:38:34.543Z,1.33
2024-04-16T08:41:03.435Z,1.48
2024-04-16T08:43:46.156Z,1.30
2024-04-16T08:46:14.176Z,1.30
2024-04-16T08:48:44.338Z,1.50
2024-04-16T08:51:14.296Z,1.48
2024-04-16T08:54:09.262Z,1.75
2024-04-16T08:56:36.539Z,2.13
2024-04-16T08:59:16.169Z,1.55
2024-04-16T09:01:45.097Z,1.65
2024-04-16T09:04:16.811Z,1.58
2024-04-16T09:06:45.052Z,1.90
2024-04-16T09:09:14.908Z,1.92
2024-04-16T09:12:08.031Z,2.05
2024-04-16T09:14:41.805Z,1.80
2024-04-16T09:17:17.974Z,1.75
2024-04-16T09:19:47.808Z,1.42
2024-04-16T09:22:15.080Z,1.55
2024-04-16T09:24:45.207Z,1.45
2024-04-16T09:35:09.302Z,1.45
2024-04-16T09:38:30.526Z,1.30
2024-04-16T09:45:05.999Z,1.30
2024-04-16T09:50:35.147Z,1.52
2024-04-16T09:53:14.924Z,1.15
2024-04-16T09:56:13.177Z,1.33
2024-04-16T09:58:40.761Z,1.38
2024-04-16T10:04:22.516Z,1.40
2024-04-16T10:07:19.311Z,1.20
2024-04-16T10:09:49.614Z,1.33
2024-04-16T10:15:22.389Z,1.42
2024-04-16T10:17:51.639Z,1.55
2024-04-16T10:31:25.689Z,1.75
2024-04-16T10:34:21.463Z,1.40
2024-04-16T10:40:33.335Z,0.82
2024-04-16T10:43:25.366Z,1.40
2024-04-16T10:45:53.234Z,1.05
2024-04-16T10:48:23.706Z,1.38
2024-04-16T10:50:59.193Z,1.40
2024-04-16T10:53:29.156Z,1.42
2024-04-16T10:55:59.093Z,1.50
2024-04-16T10:58:28.969Z,0.90
2024-04-16T11:01:06.344Z,1.10
2024-04-16T11:03:36.793Z,1.00
2024-04-16T11:06:04.310Z,1.02
2024-04-16T11:08:35.208Z,0.70
2024-04-16T11:11:14.907Z,0.60
2024-04-16T11:13:44.808Z,0.63
2024-04-16T11:16:12.591Z,0.90
2024-04-16T11:18:43.008Z,0.90
2024-04-16T11:21:10.273Z,0.70
2024-04-16T11:23:42.160Z,0.93
2024-04-16T11:26:12.351Z,0.70
2024-04-16T11:28:42.800Z,0.90
2024-04-16T11:31:11.647Z,0.60
2024-04-16T11:33:44.281Z,0.50
2024-04-16T11:36:14.319Z,0.70
2024-04-16T11:38:45.172Z,0.50
2024-04-16T11:41:17.256Z,0.65
2024-04-16T11:43:52.067Z,0.40
2024-04-16T11:46:20.294Z,0.50
2024-04-16T11:48:50.452Z,0.60
2024-04-16T11:51:17.824Z,0.50
2024-04-16T11:53:52.254Z,0.57
2024-04-16T11:59:15.752Z,0.77
2024-04-16T12:01:42.981Z,0.77
2024-04-16T12:04:13.668Z,0.80
2024-04-16T12:06:41.453Z,0.90
2024-04-16T12:09:11.916Z,0.85
2024-04-16T12:11:42.421Z,0.70
2024-04-16T12:14:26.011Z,0.70
2024-04-16T12:16:53.523Z,0.80
2024-04-16T12:19:25.257Z,0.80
2024-04-16T12:21:52.823Z,0.80
2024-04-16T12:24:36.864Z,0.85
2024-04-16T12:27:04.419Z,1.05
2024-04-16T12:29:41.836Z,0.90
2024-04-16T12:32:09.544Z,1.00
2024-04-16T12:34:41.136Z,1.20
2024-04-16T12:37:11.398Z,1.10
2024-04-16T12:39:41.542Z,1.30
2024-04-16T12:42:08.973Z,1.10
2024-04-16T12:44:43.613Z,1.15
2024-04-16T12:47:11.976Z,1.37
2024-04-16T12:49:43.787Z,1.42
2024-04-16T12:52:11.352Z,1.17
2024-04-16T12:54:59.691Z,1.25
2024-04-16T12:57:30.154Z,1.20
2024-04-16T13:00:02.685Z,0.85
2024-04-16T13:02:37.213Z,1.30
2024-04-16T13:05:14.631Z,1.00
2024-04-16T13:07:44.832Z,1.00
2024-04-16T13:10:12.621Z,1.00
2024-04-16T13:15:33.261Z,1.02
2024-04-16T13:18:03.374Z,1.00
2024-04-16T13:20:34.114Z,1.15
2024-04-16T13:23:07.295Z,1.10
2024-04-16T13:25:34.626Z,1.20
2024-04-16T13:28:04.498Z,1.30
2024-04-16T13:30:35.768Z,1.00
2024-04-16T13:33:14.210Z,1.00
2024-04-16T13:35:41.915Z,0.80
2024-04-16T13:38:11.882Z,0.70
2024-04-16T13:40:39.242Z,0.60
2024-04-16T13:43:09.925Z,0.70
2024-04-16T13:45:51.308Z,0.80
2024-04-16T13:48:19.335Z,1.00
2024-04-16T13:50:54.720Z,1.13
2024-04-16T13:53:28.596Z,1.10
2024-04-16T13:56:00.529Z,1.10
2024-04-16T13:58:28.254Z,1.52
2024-04-16T14:01:00.990Z,1.25
2024-04-16T14:03:49.413Z,1.40
2024-04-16T14:06:19.720Z,1.38
2024-04-16T14:08:47.022Z,1.73
2024-04-16T14:11:26.460Z,1.80
2024-04-16T14:13:54.516Z,1.85
2024-04-16T14:16:27.280Z,1.58
2024-04-16T14:18:55.020Z,1.77
2024-04-16T14:21:28.487Z,1.20
2024-04-16T14:24:10.192Z,1.55
2024-04-16T14:26:40.220Z,1.10
2024-04-16T14:29:07.538Z,1.30
2024-04-16T14:31:54.672Z,1.40
2024-04-16T14:34:25.598Z,1.20
2024-04-16T14:36:56.177Z,1.17
2024-04-16T14:39:25.680Z,1.50
2024-04-16T14:42:01.196Z,1.40
2024-04-16T14:46:59.537Z,1.40
2024-04-16T14:49:39.671Z,1.92
2024-04-16T14:54:44.918Z,1.42
2024-04-16T14:57:20.721Z,1.60
2024-04-16T15:00:15.336Z,2.10
2024-04-16T15:02:45.496Z,2.40
2024-04-16T15:05:54.499Z,2.00
2024-04-16T15:08:30.016Z,2.40
2024-04-16T15:13:44.020Z,2.17
2024-04-16T15:16:12.893Z,2.38
2024-04-16T15:18:53.761Z,2.30
2024-04-16T15:21:31.107Z,2.10
2024-04-16T15:24:04.135Z,2.47
2024-04-16T15:26:31.621Z,2.10
2024-04-16T15:29:26.432Z,1.90
2024-04-16T15:31:54.443Z,2.33
2024-04-16T15:34:24.607Z,1.60
2024-04-16T15:37:18.985Z,2.22
2024-04-16T15:39:52.379Z,1.88
2024-04-16T15:42:20.040Z,1.80
2024-04-16T15:45:16.587Z,1.90
2024-04-16T15:50:47.162Z,2.10
2024-04-16T15:53:14.963Z,2.40
2024-04-16T15:55:51.472Z,2.28
2024-04-16T15:58:56.324Z,2.38
2024-04-16T16:01:30.336Z,2.30
2024-04-16T16:04:19.766Z,2.92
2024-04-16T16:06:51.074Z,3.30
2024-04-16T16:09:18.770Z,3.25
2024-04-16T16:11:53.513Z,3.33
2024-04-16T16:14:22.586Z,2.90
2024-04-16T16:17:17.738Z,3.20
2024-04-16T16:19:45.077Z,2.92
2024-04-16T16:22:22.181Z,3.05
2024-04-16T16:24:52.582Z,2.97
2024-04-16T16:27:25.115Z,2.65
2024-04-16T16:29:52.656Z,3.20
2024-04-16T16:32:24.689Z,3.08
2024-04-16T16:35:02.452Z,3.28
2024-04-16T16:37:32.650Z,2.90
2024-04-16T16:40:00.519Z,2.53
2024-04-16T16:42:33.329Z,2.45
2024-04-16T16:45:10.702Z,2.60
2024-04-16T16:47:40.647Z,2.83
2024-04-16T16:50:08.103Z,2.65
2024-04-16T16:52:37.940Z,2.55
2024-04-16T16:57:50.308Z,2.35
2024-04-16T17:00:17.673Z,2.88
2024-04-16T17:02:47.650Z,2.80
2024-04-16T17:05:25.848Z,2.90
2024-04-16T17:07:55.905Z,3.05
2024-04-16T17:10:23.130Z,2.88
2024-04-16T17:12:56.630Z,2.97
2024-04-16T17:15:24.233Z,3.08
2024-04-16T17:17:58.486Z,2.67
2024-04-16T17:20:28.754Z,2.97
2024-04-16T17:22:56.083Z,2.90
2024-04-16T17:25:26.531Z,2.80
2024-04-16T17:27:57.609Z,2.85
2024-04-16T17:30:27.690Z,2.63
2024-04-16T17:32:55.274Z,2.70
2024-04-16T17:35:25.665Z,3.50
2024-04-16T17:37:52.977Z,3.20
2024-04-16T17:40:23.955Z,3.35
2024-04-16T17:42:52.739Z,3.95
2024-04-16T17:45:25.637Z,3.83
2024-04-16T17:47:53.068Z,4.00
2024-04-16T17:50:30.410Z,3.60
2024-04-16T17:52:58.114Z,3.33
2024-04-16T17:55:28.275Z,3.70
2024-04-16T17:57:55.525Z,3.30
2024-04-16T18:00:28.605Z,3.55
2024-04-16T18:02:56.294Z,3.10
2024-04-16T18:05:26.201Z,2.85
2024-04-16T18:07:53.702Z,3.13
2024-04-16T18:10:23.665Z,3.33
2024-04-16T18:12:54.711Z,3.72
2024-04-16T18:15:25.405Z,5.20
2024-04-16T18:17:55.376Z,4.32
2024-04-16T18:20:26.303Z,4.45
2024-04-16T18:22:53.558Z,4.65
2024-04-16T18:25:24.335Z,4.25
2024-04-16T18:27:51.999Z,3.97
2024-04-16T18:30:22.024Z,4.13
2024-04-16T18:32:49.536Z,4.28
2024-04-16T18:35:22.268Z,3.92
2024-04-16T18:37:49.596Z,3.35
2024-04-16T18:40:20.079Z,3.20
2024-04-16T18:42:52.046Z,2.22
2024-04-16T18:45:23.745Z,1.50
2024-04-16T18:47:51.921Z,1.55
2024-04-16T18:50:24.561Z,1.20
2024-04-16T18:52:53.058Z,1.10
2024-04-16T18:55:28.555Z,1.00
2024-04-16T18:58:00.122Z,1.40
2024-04-16T19:00:30.291Z,1.40
2024-04-16T19:02:57.979Z,1.90
2024-04-16T19:05:35.312Z,1.50
2024-04-16T19:08:05.314Z,1.80
2024-04-16T19:10:36.077Z,1.63
2024-04-16T19:13:06.252Z,1.75
2024-04-16T19:15:38.750Z,1.77
2024-04-16T19:18:06.535Z,2.30
2024-04-16T19:20:41.876Z,2.47
2024-04-16T19:23:10.729Z,2.13
2024-04-16T19:25:41.151Z,2.30
2024-04-16T19:28:13.042Z,2.92
2024-04-16T19:30:45.121Z,2.88
2024-04-16T19:33:13.693Z,2.60
2024-04-16T19:35:46.626Z,2.65
2024-04-16T19:38:14.493Z,2.55
2024-04-16T19:40:45.880Z,2.78
2024-04-16T19:43:13.481Z,2.70
2024-04-16T19:45:46.906Z,2.60
2024-04-16T19:48:19.437Z,3.90
2024-04-16T19:50:54.172Z,3.05
2024-04-16T19:53:22.154Z,2.65
2024-04-16T19:55:59.699Z,2.67
2024-04-16T19:58:27.554Z,2.70
2024-04-16T20:01:04.936Z,2.70
2024-04-16T20:03:35.827Z,3.30
2024-04-16T20:06:11.281Z,3.00
2024-04-16T20:08:39.506Z,3.25
2024-04-16T20:11:16.320Z,3.20
2024-04-16T20:13:46.824Z,3.08
2024-04-16T20:16:20.457Z,3.72
2024-04-16T20:18:48.853Z,2.95
2024-04-16T20:21:23.172Z,3.00
2024-04-16T20:23:52.344Z,3.40
2024-04-16T20:26:22.583Z,3.30
2024-04-16T20:28:50.126Z,3.25
2024-04-16T20:31:20.604Z,3.65
2024-04-16T20:33:48.142Z,3.20
2024-04-16T20:36:18.802Z,2.80
2024-04-16T20:38:54.448Z,3.10
2024-04-16T20:43:51.927Z,2.58
2024-04-16T20:46:25.265Z,3.40
2024-04-16T20:48:53.242Z,3.00
2024-04-16T20:51:24.342Z,2.72
2024-04-16T20:53:54.311Z,2.97
2024-04-16T20:56:24.344Z,2.88
2024-04-16T20:58:51.685Z,2.90
2024-04-16T21:01:21.557Z,2.53
2024-04-16T21:03:50.464Z,2.65
2024-04-16T21:06:20.458Z,2.70
2024-04-16T21:08:47.729Z,3.38
2024-04-16T21:11:23.237Z,2.75
2024-04-16T21:13:50.649Z,2.78
2024-04-16T21:16:20.596Z,2.72
2024-04-16T21:18:50.164Z,3.00
2024-04-16T21:21:20.075Z,3.17
2024-04-16T21:23:47.261Z,2.92
2024-04-16T21:26:19.761Z,3.33
2024-04-16T21:28:47.002Z,3.67
2024-04-16T21:31:17.607Z,3.30
2024-04-16T21:33:44.846Z,3.28
2024-04-16T21:36:15.050Z,3.17
2024-04-16T21:38:42.363Z,3.80
2024-04-16T21:41:12.155Z,3.50
2024-04-16T21:43:43.717Z,3.35
2024-04-16T21:46:14.012Z,3.80
2024-04-16T21:48:41.582Z,3.40
2024-04-16T21:51:11.650Z,3.80
2024-04-16T21:53:39.027Z,3.60
2024-04-16T21:56:09.786Z,3.58
2024-04-16T21:58:37.169Z,3.63
2024-04-16T22:01:10.905Z,3.63
2024-04-16T22:03:38.495Z,3.88
2024-04-16T22:06:08.464Z,3.72
2024-04-16T22:08:35.691Z,3.92
2024-04-16T22:11:06.180Z,4.20
2024-04-16T22:13:33.637Z,4.72
2024-04-16T22:16:04.824Z,4.25
2024-04-16T22:18:34.985Z,3.67
2024-04-16T22:21:05.389Z,3.40
2024-04-16T22:23:32.823Z,3.60
2024-04-16T22:26:03.335Z,3.70
2024-04-16T22:28:31.513Z,3.50
2024-04-16T22:31:01.972Z,3.28
2024-04-16T22:33:31.847Z,3.60
2024-04-16T22:36:04.564Z,2.75
2024-04-16T22:38:32.010Z,3.13
2024-04-16T22:41:02.100Z,2.90
2024-04-16T22:43:29.558Z,2.55
2024-04-16T22:46:00.236Z,2.72
2024-04-16T22:48:27.702Z,2.95
2024-04-16T22:50:59.118Z,3.08
2024-04-16T22:53:31.365Z,2.85
2024-04-16T22:56:01.700Z,2.58
2024-04-16T22:58:28.951Z,2.78
2024-04-16T23:00:58.862Z,3.15
2024-04-16T23:03:26.394Z,2.72
2024-04-16T23:05:56.775Z,3.10
2024-04-16T23:08:24.015Z,2.85
2024-04-16T23:10:58.082Z,2.78
2024-04-16T23:13:25.521Z,2.72
2024-04-16T23:15:55.417Z,3.20
2024-04-16T23:18:23.888Z,2.90
2024-04-16T23:20:54.156Z,2.50
2024-04-16T23:23:21.469Z,3.15
2024-04-16T23:25:51.510Z,3.25
2024-04-16T23:28:21.413Z,3.08
2024-04-16T23:30:51.268Z,2.97
2024-04-16T23:33:18.621Z,3.50
2024-04-16T23:35:48.502Z,3.00
2024-04-16T23:38:15.810Z,2.90
2024-04-16T23:40:50.044Z,3.72
2024-04-16T23:43:17.358Z,2.90
2024-04-16T23:45:50.310Z,2.80
2024-04-16T23:48:17.586Z,2.85
2024-04-16T23:50:47.636Z,3.33
2024-04-16T23:53:14.883Z,2.83
2024-04-16T23:55:45.042Z,2.83
2024-04-16T23:58:12.737Z,3.28
